Terminal Aerodrome Forecast
Issued by NWS Twin Cities, MN

Home | Current Version | Previous Version | Graphics & Text | Print | Product List | Glossary On
Versions: 1 2 3 4 5 6 7 8 9 10 11 12 13
000
FTUS43 KMPX 042331
TAFEAU
TAF
KEAU 042331Z 0500/0524 04004KT P6SM BKN250
     FM051200 09007KT P6SM SCT040 BKN150
     FM051600 12011G18KT P6SM VCSH BKN040 OVC100=

USA.gov is the U.S. government's official web portal to all federal, state and local government web resources and services.